createdAt,value
2018-12-12T00:00:20.839Z,14.63
2018-12-12T00:02:54.748Z,11.77
2018-12-12T00:05:28.721Z,16.67
2018-12-12T00:08:02.785Z,11.10
2018-12-12T00:10:36.847Z,16.30
2018-12-12T00:13:10.775Z,13.00
2018-12-12T00:15:44.752Z,17.73
2018-12-12T00:18:18.872Z,20.40
2018-12-12T00:20:52.835Z,15.13
2018-12-12T00:23:26.727Z,13.53
2018-12-12T00:26:00.604Z,12.93
2018-12-12T00:28:34.565Z,11.30
2018-12-12T00:31:08.454Z,16.67
2018-12-12T00:33:42.497Z,11.90
2018-12-12T00:36:16.359Z,14.03
2018-12-12T00:38:50.418Z,13.00
2018-12-12T00:41:24.476Z,8.80
2018-12-12T00:43:58.396Z,13.77
2018-12-12T00:46:32.857Z,14.43
2018-12-12T00:49:06.832Z,18.00
2018-12-12T00:51:40.840Z,15.70
2018-12-12T00:54:14.758Z,18.83
2018-12-12T00:56:48.587Z,13.43
2018-12-12T00:59:22.650Z,22.97
2018-12-12T01:01:56.758Z,26.47
2018-12-12T01:04:30.691Z,16.20
2018-12-12T01:07:04.619Z,15.07
2018-12-12T01:09:38.597Z,13.23
2018-12-12T01:12:13.691Z,9.10
2018-12-12T01:14:47.551Z,21.37
2018-12-12T01:17:21.580Z,13.30
2018-12-12T01:19:55.607Z,15.03
2018-12-12T01:22:29.580Z,19.30
2018-12-12T01:25:03.480Z,12.40
2018-12-12T01:27:37.509Z,13.10
2018-12-12T01:30:11.547Z,15.73
2018-12-12T01:32:45.609Z,15.23
2018-12-12T01:35:19.539Z,15.23
2018-12-12T01:37:53.447Z,12.43
2018-12-12T01:40:27.450Z,16.23
2018-12-12T01:43:01.585Z,9.47
2018-12-12T01:45:35.552Z,20.40
2018-12-12T01:48:09.679Z,19.40
2018-12-12T01:50:43.530Z,10.33
2018-12-12T01:53:17.519Z,32.07
2018-12-12T01:55:51.342Z,14.87
2018-12-12T01:58:25.390Z,17.50
2018-12-12T02:00:59.264Z,11.07
2018-12-12T02:03:33.247Z,13.70
2018-12-12T02:06:07.259Z,14.50
2018-12-12T02:08:41.277Z,12.80
2018-12-12T02:11:15.281Z,20.93
2018-12-12T02:13:49.200Z,16.30
2018-12-12T02:16:23.711Z,13.57
2018-12-12T02:18:57.833Z,12.47
2018-12-12T02:21:31.823Z,13.53
2018-12-12T02:24:05.774Z,13.20
2018-12-12T02:26:39.670Z,17.20
2018-12-12T02:29:13.723Z,18.87
2018-12-12T02:31:47.792Z,17.40
2018-12-12T02:34:21.673Z,11.70
2018-12-12T02:36:55.534Z,19.30
2018-12-12T02:39:29.491Z,16.13
2018-12-12T02:42:03.467Z,13.07
2018-12-12T02:44:37.477Z,18.00
2018-12-12T02:47:11.416Z,20.30
2018-12-12T02:49:45.407Z,18.80
2018-12-12T02:52:19.365Z,22.23
2018-12-12T02:54:53.325Z,14.43
2018-12-12T02:57:27.265Z,11.13
2018-12-12T03:00:01.311Z,16.13
2018-12-12T03:02:35.657Z,10.83
2018-12-12T03:05:09.522Z,19.20
2018-12-12T03:07:43.543Z,11.80
2018-12-12T03:10:17.513Z,10.73
2018-12-12T03:12:51.527Z,14.80
2018-12-12T03:15:25.547Z,22.93
2018-12-12T03:17:59.554Z,11.50
2018-12-12T03:20:33.518Z,13.37
2018-12-12T03:23:07.370Z,15.60
2018-12-12T03:25:41.438Z,17.23
2018-12-12T03:28:15.275Z,11.10
2018-12-12T03:30:49.273Z,15.80
2018-12-12T03:33:23.385Z,20.63
2018-12-12T03:35:57.271Z,15.80
2018-12-12T03:38:31.318Z,29.43
2018-12-12T03:41:05.193Z,18.20
2018-12-12T03:43:39.210Z,11.43
2018-12-12T03:46:13.231Z,11.00
2018-12-12T03:48:48.262Z,11.40
2018-12-12T03:51:22.232Z,15.33
2018-12-12T03:53:56.240Z,14.50
2018-12-12T03:56:30.199Z,11.23
2018-12-12T03:59:04.277Z,8.70
2018-12-12T04:01:42.804Z,22.70
2018-12-12T04:04:16.735Z,14.80
2018-12-12T04:06:50.628Z,15.13
2018-12-12T04:09:24.584Z,11.40
2018-12-12T04:11:58.657Z,13.80
2018-12-12T04:14:32.572Z,14.50
2018-12-12T04:17:06.570Z,12.53
2018-12-12T04:19:40.495Z,11.10
2018-12-12T04:22:14.391Z,14.03
2018-12-12T04:24:48.558Z,10.17
2018-12-12T04:27:22.654Z,14.63
2018-12-12T04:29:56.536Z,11.30
2018-12-12T04:32:30.647Z,18.97
2018-12-12T04:35:04.764Z,14.00
2018-12-12T04:37:38.854Z,20.10
2018-12-12T04:40:12.762Z,13.57
2018-12-12T04:42:46.616Z,10.97
2018-12-12T04:45:20.514Z,14.47
2018-12-12T04:47:54.419Z,14.83
2018-12-12T04:50:28.373Z,16.27
2018-12-12T04:53:02.384Z,12.43
2018-12-12T04:55:36.264Z,19.50
2018-12-12T04:58:10.144Z,20.53
2018-12-12T05:00:44.120Z,13.33
2018-12-12T05:03:18.235Z,16.47
2018-12-12T05:05:52.086Z,26.70
2018-12-12T05:08:26.086Z,21.07
2018-12-12T05:11:00.156Z,19.67
2018-12-12T05:13:34.229Z,19.67
2018-12-12T05:16:08.323Z,24.00
2018-12-12T05:18:42.306Z,29.57
2018-12-12T05:21:16.423Z,16.80
2018-12-12T05:23:50.496Z,17.47
2018-12-12T05:26:24.601Z,23.23
2018-12-12T05:28:58.461Z,31.60
2018-12-12T05:31:32.492Z,43.23
2018-12-12T05:34:06.330Z,26.37
2018-12-12T05:36:40.260Z,23.73
2018-12-12T05:39:14.248Z,19.37
2018-12-12T05:41:48.149Z,21.43
2018-12-12T05:44:23.174Z,24.63
2018-12-12T05:46:57.242Z,25.73
2018-12-12T05:49:31.221Z,30.13
2018-12-12T05:52:05.359Z,32.13
2018-12-12T05:54:39.301Z,26.23
2018-12-12T05:57:13.484Z,26.73
2018-12-12T05:59:47.615Z,30.20
2018-12-12T06:02:21.703Z,28.13
2018-12-12T06:04:55.655Z,32.20
2018-12-12T06:07:29.835Z,26.63
2018-12-12T06:10:04.559Z,24.57
2018-12-12T06:12:38.624Z,26.10
2018-12-12T06:15:12.674Z,67.37
2018-12-12T06:17:46.834Z,41.83
2018-12-12T06:20:20.916Z,34.30
2018-12-12T06:22:54.858Z,23.83
2018-12-12T06:25:28.951Z,27.83
2018-12-12T06:28:03.033Z,25.90
2018-12-12T06:30:37.207Z,28.33
2018-12-12T06:33:11.400Z,28.77
2018-12-12T06:35:45.591Z,28.30
2018-12-12T06:38:19.761Z,33.57
2018-12-12T06:40:53.843Z,29.43
2018-12-12T06:43:27.911Z,23.20
2018-12-12T06:46:02.142Z,31.23
2018-12-12T06:48:36.116Z,31.87
2018-12-12T06:51:10.445Z,27.43
2018-12-12T06:53:44.564Z,27.23
2018-12-12T06:56:18.736Z,30.17
2018-12-12T06:58:53.112Z,32.60
2018-12-12T07:01:27.796Z,31.77
2018-12-12T07:04:01.873Z,29.67
2018-12-12T07:06:36.009Z,32.93
2018-12-12T07:09:10.457Z,29.40
2018-12-12T07:11:44.799Z,29.37
2018-12-12T07:14:19.080Z,32.93
2018-12-12T07:16:53.363Z,35.30
2018-12-12T07:19:27.807Z,44.17
2018-12-12T07:22:02.027Z,42.87
2018-12-12T07:24:36.337Z,32.97
2018-12-12T07:27:10.424Z,30.67
2018-12-12T07:29:44.583Z,38.07
2018-12-12T07:32:18.894Z,31.83
2018-12-12T07:34:53.050Z,30.27
2018-12-12T07:37:27.099Z,30.50
2018-12-12T07:40:01.143Z,33.00
2018-12-12T07:42:35.260Z,38.87
2018-12-12T07:45:09.440Z,46.67
2018-12-12T07:47:43.669Z,30.73
2018-12-12T07:50:18.224Z,30.20
2018-12-12T07:52:52.236Z,30.07
2018-12-12T07:55:26.253Z,29.30
2018-12-12T07:58:00.388Z,33.87
2018-12-12T08:00:34.542Z,38.40
2018-12-12T08:03:08.741Z,35.77
2018-12-12T08:05:42.740Z,83.50
2018-12-12T08:08:17.053Z,35.37
2018-12-12T08:10:51.353Z,33.83
2018-12-12T08:13:25.539Z,47.07
2018-12-12T08:16:00.276Z,36.07
2018-12-12T08:18:34.661Z,32.33
2018-12-12T08:21:08.908Z,43.83
2018-12-12T08:23:43.419Z,32.17
2018-12-12T08:26:17.480Z,42.00
2018-12-12T08:28:51.653Z,42.27
2018-12-12T08:31:25.692Z,39.27
2018-12-12T08:33:59.703Z,42.87
2018-12-12T08:36:33.924Z,40.37
2018-12-12T08:39:08.223Z,38.90
2018-12-12T08:41:42.805Z,30.60
2018-12-12T08:44:16.979Z,28.27
2018-12-12T08:46:51.319Z,48.57
2018-12-12T08:49:25.508Z,32.87
2018-12-12T08:51:59.561Z,42.30
2018-12-12T08:54:33.518Z,34.80
2018-12-12T08:57:07.827Z,36.77
2018-12-12T08:59:42.176Z,36.10
2018-12-12T09:02:16.469Z,35.87
2018-12-12T09:04:50.997Z,35.00
2018-12-12T09:07:25.047Z,31.80
2018-12-12T09:09:59.122Z,37.60
2018-12-12T09:12:33.261Z,33.00
2018-12-12T09:15:07.615Z,39.50
